Time;durP1;ratioP1;P1;durP2;ratioP2;P2;SDS_P1;SDS_P2;PMS_P1;PMS_P2;Temp;Humidity;BMP_temperature;BMP_pressure;BME280_temperature;BME280_humidity;BME280_pressure;Samples;Min_cycle;Max_cycle;Signal;HPM_P1;HPM_P2
2024/04/11 00:00:13;;;;;;;9.33;7.07;;;9.20;1.00;;;;;;5325450;26;20493;-75
2024/04/11 00:02:43;;;;;;;5.50;5.00;;;9.20;1.00;;;;;;5347688;26;22798;-74
2024/04/11 00:05:09;;;;;;;5.23;4.73;;;9.10;1.00;;;;;;5326044;26;21091;-74
2024/04/11 00:07:38;;;;;;;7.00;5.30;;;9.10;1.00;;;;;;5309175;26;20612;-72
2024/04/11 00:10:04;;;;;;;6.47;5.73;;;9.00;1.00;;;;;;5312025;26;21043;-73
2024/04/11 00:12:33;;;;;;;6.10;4.90;;;9.00;1.00;;;;;;5324895;26;21560;-72
2024/04/11 00:15:02;;;;;;;6.73;5.67;;;9.00;1.00;;;;;;5340042;26;20547;-74
2024/04/11 00:17:30;;;;;;;5.87;5.30;;;9.00;1.00;;;;;;5345133;26;20495;-73
2024/04/11 00:19:57;;;;;;;9.57;5.73;;;8.90;1.00;;;;;;5334231;26;20483;-72
2024/04/11 00:22:25;;;;;;;8.20;5.70;;;8.80;1.00;;;;;;5309416;26;21452;-72
2024/04/11 00:24:51;;;;;;;6.90;5.37;;;8.70;1.00;;;;;;5309854;26;20526;-72
2024/04/11 00:27:22;;;;;;;9.70;5.50;;;8.70;1.00;;;;;;5313531;26;21040;-73
2024/04/11 00:29:48;;;;;;;6.20;5.53;;;8.60;1.00;;;;;;5313031;26;21724;-72
2024/04/11 00:32:19;;;;;;;8.50;5.70;;;8.60;1.00;;;;;;5337484;26;20551;-74
2024/04/11 00:34:45;;;;;;;5.53;5.00;;;8.60;1.00;;;;;;5332447;26;20484;-72
2024/04/11 00:37:15;;;;;;;8.67;5.17;;;8.60;1.00;;;;;;5324003;26;20555;-72
2024/04/11 00:39:41;;;;;;;6.13;5.53;;;8.70;1.00;;;;;;5310031;26;21456;-74
2024/04/11 00:42:10;;;;;;;7.03;6.43;;;8.80;1.00;;;;;;5309354;26;20669;-73
2024/04/11 00:44:37;;;;;;;6.90;6.20;;;8.90;1.00;;;;;;5332420;26;20619;-72
2024/04/11 00:47:09;;;;;;;5.70;5.00;;;8.90;1.00;;;;;;5328303;26;20493;-73
2024/04/11 00:49:39;;;;;;;9.17;5.90;;;8.90;1.00;;;;;;5309059;26;20496;-73
2024/04/11 00:52:09;;;;;;;6.80;5.73;;;8.80;1.00;;;;;;5309155;26;20546;-73
2024/04/11 00:54:38;;;;;;;6.57;5.60;;;8.70;1.00;;;;;;5312796;26;20488;-73
2024/04/11 00:57:07;;;;;;;6.87;5.70;;;8.70;1.00;;;;;;5344375;26;20613;-73
2024/04/11 00:59:38;;;;;;;5.50;5.00;;;8.70;1.00;;;;;;5332095;26;20530;-71
2024/04/11 01:02:04;;;;;;;6.30;5.50;;;8.70;1.00;;;;;;5312485;26;20668;-72
2024/04/11 01:04:35;;;;;;;7.13;5.50;;;8.70;1.00;;;;;;5335100;26;20572;-73
2024/04/11 01:07:06;;;;;;;5.77;5.27;;;8.70;1.00;;;;;;5345012;26;20635;-73
2024/04/11 01:09:36;;;;;;;6.87;5.57;;;8.70;1.00;;;;;;5306093;26;20469;-72
2024/04/11 01:12:03;;;;;;;7.33;5.87;;;8.70;1.00;;;;;;5306315;26;20483;-73
2024/04/11 01:14:34;;;;;;;8.10;5.53;;;8.60;1.00;;;;;;5330728;26;21480;-73
2024/04/11 01:17:00;;;;;;;7.50;6.30;;;8.70;1.00;;;;;;5339291;26;20481;-74
2024/04/11 01:19:28;;;;;;;6.53;5.47;;;8.80;1.00;;;;;;5339945;26;20570;-73
2024/04/11 01:21:56;;;;;;;6.93;6.23;;;8.80;1.00;;;;;;5345293;26;21005;-72
2024/04/11 01:24:27;;;;;;;8.87;5.70;;;8.70;1.00;;;;;;5327088;26;20498;-72
2024/04/11 01:26:54;;;;;;;6.67;5.20;;;8.70;1.00;;;;;;5347544;26;20491;-72
2024/04/11 01:29:23;;;;;;;8.87;5.47;;;8.70;1.00;;;;;;5330651;26;21088;-74
2024/04/11 01:31:53;;;;;;;8.67;6.30;;;8.60;1.00;;;;;;5346505;26;20476;-70
2024/04/11 01:34:25;;;;;;;7.93;5.30;;;8.50;1.00;;;;;;5330255;26;21345;-72
2024/04/11 01:36:51;;;;;;;7.60;5.47;;;8.50;1.00;;;;;;5347362;26;21838;-73
2024/04/11 01:39:20;;;;;;;7.03;5.87;;;8.50;1.00;;;;;;5340823;26;20486;-70
2024/04/11 01:41:49;;;;;;;7.50;5.87;;;8.50;1.00;;;;;;5320151;26;20493;-72
2024/04/11 01:44:17;;;;;;;7.60;6.33;;;8.50;1.00;;;;;;5306428;26;20615;-71
2024/04/11 01:46:43;;;;;;;7.23;5.50;;;8.40;1.00;;;;;;5310743;26;20480;-71
2024/04/11 01:49:13;;;;;;;7.60;5.60;;;8.40;1.00;;;;;;5308905;26;20504;-72
2024/04/11 01:51:41;;;;;;;7.63;6.50;;;8.40;1.00;;;;;;5303756;26;20573;-71
2024/04/11 01:54:10;;;;;;;9.70;6.17;;;8.30;1.00;;;;;;5309289;26;20507;-71
2024/04/11 01:56:36;;;;;;;7.20;6.50;;;8.30;1.00;;;;;;5311861;26;20539;-73
2024/04/11 01:59:09;;;;;;;7.50;5.70;;;8.30;1.00;;;;;;5307687;26;20602;-72
2024/04/11 02:01:37;;;;;;;8.87;7.40;;;8.30;1.00;;;;;;5319819;26;21379;-71
2024/04/11 02:04:09;;;;;;;9.10;6.67;;;8.20;1.00;;;;;;5336380;26;21068;-71
2024/04/11 02:06:36;;;;;;;10.30;7.17;;;8.20;1.00;;;;;;5302360;26;20504;-71
2024/04/11 02:09:09;;;;;;;9.73;6.73;;;8.10;1.00;;;;;;5329547;26;20585;-71
2024/04/11 02:11:38;;;;;;;7.67;6.30;;;8.20;1.00;;;;;;5311601;26;21448;-71
2024/04/11 02:14:07;;;;;;;10.50;7.37;;;8.10;1.00;;;;;;5327561;26;20526;-71
2024/04/11 02:16:36;;;;;;;8.30;7.27;;;8.10;1.00;;;;;;5381096;26;20487;-71
2024/04/11 02:19:06;;;;;;;7.60;6.53;;;8.10;1.00;;;;;;5346758;26;20594;-72
2024/04/11 02:21:35;;;;;;;8.80;7.27;;;8.10;1.00;;;;;;5346099;26;21014;-75
2024/04/11 02:24:02;;;;;;;7.63;6.63;;;8.10;1.00;;;;;;5320149;26;20547;-74
2024/04/11 02:26:32;;;;;;;7.67;6.90;;;8.10;1.00;;;;;;5346065;26;21018;-70
2024/04/11 02:28:58;;;;;;;8.50;7.50;;;8.10;1.00;;;;;;5332379;26;20527;-72
2024/04/11 02:31:29;;;;;;;10.63;7.37;;;8.10;1.00;;;;;;5314734;26;20496;-70
2024/04/11 02:33:57;;;;;;;8.30;6.97;;;8.10;1.00;;;;;;5309184;26;20997;-71
2024/04/11 02:36:29;;;;;;;12.97;8.03;;;8.10;1.00;;;;;;5347499;26;21026;-71
2024/04/11 02:38:55;;;;;;;12.83;7.80;;;8.10;1.00;;;;;;5346505;26;20543;-71
2024/04/11 02:41:25;;;;;;;8.37;6.87;;;8.10;1.00;;;;;;5342989;26;20606;-70
2024/04/11 02:43:51;;;;;;;7.90;7.10;;;8.00;1.00;;;;;;5346572;26;20522;-70
2024/04/11 02:46:19;;;;;;;9.40;7.23;;;8.00;1.00;;;;;;5341546;26;20534;-71
2024/04/11 02:48:48;;;;;;;7.70;6.90;;;7.90;1.00;;;;;;5337254;26;21058;-72
2024/04/11 02:51:17;;;;;;;10.00;6.97;;;7.80;1.00;;;;;;5307467;26;20628;-71
2024/04/11 02:53:43;;;;;;;14.05;8.30;;;7.80;1.00;;;;;;5323918;26;20495;-73
2024/04/11 02:56:13;;;;;;;8.93;7.97;;;7.80;1.00;;;;;;5352115;26;20276;-71
2024/04/11 02:58:39;;;;;;;8.20;7.43;;;7.70;1.00;;;;;;5335703;26;20540;-71
2024/04/11 03:01:14;;;;;;;7.37;6.60;;;7.80;1.00;;;;;;5312428;26;20504;-73
2024/04/11 03:03:40;;;;;;;10.57;7.50;;;7.70;1.00;;;;;;5323790;26;20514;-71
2024/04/11 03:06:13;;;;;;;10.70;7.47;;;7.70;1.00;;;;;;5348410;26;20489;-71
2024/04/11 03:08:40;;;;;;;9.80;7.23;;;7.60;1.00;;;;;;5342841;26;21074;-71
2024/04/11 03:11:09;;;;;;;8.98;8.05;;;7.60;1.00;;;;;;5338641;26;20524;-70
2024/04/11 03:13:36;;;;;;;8.43;7.07;;;7.50;1.00;;;;;;5342100;26;20388;-70
2024/04/11 03:16:06;;;;;;;12.87;8.30;;;7.50;1.00;;;;;;5344732;26;20554;-71
2024/04/11 03:18:34;;;;;;;9.07;7.60;;;7.40;1.00;;;;;;5342630;26;20490;-70
2024/04/11 03:21:03;;;;;;;10.30;7.75;;;7.40;1.00;;;;;;5327788;26;22038;-73
2024/04/11 03:23:32;;;;;;;10.07;8.00;;;7.40;1.00;;;;;;5312152;26;20300;-72
2024/04/11 03:26:01;;;;;;;8.00;7.30;;;7.40;1.00;;;;;;5329588;26;20613;-70
2024/04/11 03:28:27;;;;;;;11.37;8.33;;;7.40;1.00;;;;;;5341921;26;20655;-70
2024/04/11 03:30:56;;;;;;;10.23;8.27;;;7.50;1.00;;;;;;5328530;26;20503;-71
2024/04/11 03:33:23;;;;;;;9.47;8.37;;;7.60;1.00;;;;;;5311396;26;20496;-72
2024/04/11 03:35:56;;;;;;;9.47;8.20;;;7.60;1.00;;;;;;5315068;26;20475;-71
2024/04/11 03:38:24;;;;;;;9.47;8.57;;;7.60;1.00;;;;;;5345232;26;20498;-70
2024/04/11 03:41:02;;;;;;;8.87;7.00;;;7.70;1.00;;;;;;5345951;26;20561;-72
2024/04/11 03:43:31;;;;;;;10.47;8.27;;;7.60;1.00;;;;;;5355659;25;20666;-74
2024/04/11 03:46:07;;;;;;;16.70;9.83;;;7.70;1.00;;;;;;5352019;26;20862;-74
2024/04/11 03:48:36;;;;;;;11.57;9.10;;;7.70;1.00;;;;;;5349069;26;20549;-72
2024/04/11 03:51:14;;;;;;;13.68;9.18;;;7.60;1.00;;;;;;5346181;25;20548;-72
2024/04/11 03:53:40;;;;;;;10.07;8.60;;;7.60;1.00;;;;;;5344611;25;20302;-72
2024/04/11 03:56:14;;;;;;;10.20;8.37;;;7.60;1.00;;;;;;5346997;26;20500;-72
2024/04/11 03:58:40;;;;;;;11.20;8.87;;;7.50;1.00;;;;;;5344388;26;20486;-72
2024/04/11 04:01:15;;;;;;;10.50;8.10;;;7.50;1.00;;;;;;5343247;25;20503;-76
2024/04/11 04:03:41;;;;;;;9.23;8.20;;;7.50;1.00;;;;;;5340725;26;22286;-72
2024/04/11 04:06:12;;;;;;;10.77;9.70;;;7.60;1.00;;;;;;5340540;26;20494;-72
2024/04/11 04:08:38;;;;;;;11.50;9.17;;;7.60;1.00;;;;;;5343871;26;20539;-72
2024/04/11 04:11:08;;;;;;;9.40;8.27;;;7.50;1.00;;;;;;5336440;25;20561;-72
2024/04/11 04:13:38;;;;;;;11.47;7.93;;;7.50;1.00;;;;;;5342806;25;20772;-73
2024/04/11 04:16:10;;;;;;;11.32;9.10;;;7.50;1.00;;;;;;5341922;26;20570;-72
2024/04/11 04:18:37;;;;;;;10.20;9.20;;;7.50;1.00;;;;;;5345214;26;20849;-72
2024/04/11 04:21:07;;;;;;;10.27;8.33;;;7.50;1.00;;;;;;5342710;26;21429;-74
2024/04/11 04:23:33;;;;;;;10.00;7.63;;;7.60;1.00;;;;;;5344670;26;20500;-73
2024/04/11 04:26:04;;;;;;;16.13;8.80;;;7.60;1.00;;;;;;5339479;26;21528;-73
2024/04/11 04:28:32;;;;;;;11.40;8.23;;;7.50;1.00;;;;;;5337284;26;21400;-71
2024/04/11 04:31:17;;;;;;;12.40;8.83;;;7.50;1.00;;;;;;5344664;26;21405;-73
2024/04/11 04:33:47;;;;;;;9.67;8.67;;;7.50;1.00;;;;;;5316705;26;21394;-73
2024/04/11 04:36:16;;;;;;;14.10;9.17;;;7.50;1.00;;;;;;5310892;26;20985;-72
2024/04/11 04:38:44;;;;;;;9.47;8.40;;;7.50;1.00;;;;;;5308709;26;21643;-75
2024/04/11 04:41:13;;;;;;;10.20;8.20;;;7.50;1.00;;;;;;5309938;26;20632;-72
2024/04/11 04:43:41;;;;;;;10.67;8.13;;;7.50;1.00;;;;;;5303668;26;20492;-73
2024/04/11 04:46:11;;;;;;;11.47;8.60;;;7.50;1.00;;;;;;5304765;26;20484;-72
2024/04/11 04:48:39;;;;;;;11.33;9.03;;;7.50;1.00;;;;;;5302733;26;21002;-74
2024/04/11 04:51:08;;;;;;;11.17;8.77;;;7.50;1.00;;;;;;5309131;26;20496;-72
2024/04/11 04:53:37;;;;;;;14.90;8.83;;;7.50;1.00;;;;;;5307548;26;20492;-74
2024/04/11 04:56:07;;;;;;;10.40;8.40;;;7.50;1.00;;;;;;5307780;26;21026;-73
2024/04/11 04:58:33;;;;;;;11.60;7.95;;;7.60;1.00;;;;;;5323180;26;20548;-72
2024/04/11 05:01:01;;;;;;;12.23;8.87;;;7.60;1.00;;;;;;5310402;26;20766;-74
2024/04/11 05:03:28;;;;;;;16.73;9.13;;;7.60;1.00;;;;;;5309392;26;21034;-71
2024/04/11 05:06:02;;;;;;;12.80;8.80;;;7.60;1.00;;;;;;5331830;26;20603;-72
2024/04/11 05:08:32;;;;;;;9.73;7.70;;;7.60;1.00;;;;;;5328114;26;20497;-71
2024/04/11 05:11:10;;;;;;;12.30;9.23;;;7.70;1.00;;;;;;5336773;26;21014;-72
2024/04/11 05:13:37;;;;;;;10.60;8.80;;;7.70;1.00;;;;;;5338795;26;20497;-74
2024/04/11 05:16:07;;;;;;;11.70;8.23;;;7.80;1.00;;;;;;5338618;26;20543;-72
2024/04/11 05:18:37;;;;;;;9.60;8.70;;;7.90;1.00;;;;;;5298188;26;20490;-71
2024/04/11 05:21:12;;;;;;;12.80;8.30;;;8.00;1.00;;;;;;5334314;26;20499;-71
2024/04/11 05:23:42;;;;;;;11.50;8.43;;;8.00;1.00;;;;;;5312629;26;20495;-73
2024/04/11 05:26:14;;;;;;;11.10;8.30;;;8.00;1.00;;;;;;5307429;26;21879;-71
2024/04/11 05:28:44;;;;;;;9.07;8.13;;;7.90;1.00;;;;;;5305866;26;20544;-72
2024/04/11 05:31:16;;;;;;;10.90;7.87;;;8.00;1.00;;;;;;5304753;26;20570;-71
2024/04/11 05:33:43;;;;;;;12.50;9.20;;;8.10;1.00;;;;;;5330816;26;20639;-72
2024/04/11 05:36:17;;;;;;;9.87;8.90;;;8.10;1.00;;;;;;5340875;26;20499;-71
2024/04/11 05:38:44;;;;;;;10.03;7.80;;;8.20;1.00;;;;;;5339901;26;20629;-72
2024/04/11 05:41:14;;;;;;;11.30;8.20;;;8.30;1.00;;;;;;5341925;26;20497;-72
2024/04/11 05:43:42;;;;;;;10.00;8.47;;;8.40;1.00;;;;;;5334970;26;20503;-74
2024/04/11 05:46:13;;;;;;;12.57;9.63;;;8.50;1.00;;;;;;5339662;26;20510;-73
2024/04/11 05:48:39;;;;;;;12.73;9.00;;;8.60;1.00;;;;;;5340316;26;20532;-71
2024/04/11 05:51:10;;;;;;;9.73;8.73;;;8.60;1.00;;;;;;5313917;26;20495;-81
2024/04/11 05:53:40;;;;;;;14.30;8.70;;;8.70;1.00;;;;;;5309119;26;20492;-73
2024/04/11 05:56:10;;;;;;;13.27;8.67;;;8.80;1.00;;;;;;5357600;26;20510;-72
2024/04/11 05:58:38;;;;;;;10.83;8.67;;;8.90;1.00;;;;;;5307510;26;21167;-71
2024/04/11 06:01:09;;;;;;;12.80;8.93;;;9.10;1.00;;;;;;5303889;26;20919;-71
2024/04/11 06:03:38;;;;;;;10.77;8.70;;;9.20;1.00;;;;;;5306511;26;20642;-75
2024/04/11 06:06:11;;;;;;;10.40;8.60;;;9.40;1.00;;;;;;5304791;26;21504;-74
2024/04/11 06:08:40;;;;;;;11.27;8.80;;;9.50;1.00;;;;;;5317314;26;20479;-74
2024/04/11 06:11:09;;;;;;;12.40;8.10;;;9.60;1.00;;;;;;5309245;26;20493;-73
2024/04/11 06:13:36;;;;;;;10.60;8.50;;;9.70;1.00;;;;;;5307724;26;23007;-74
2024/04/11 06:16:05;;;;;;;11.33;8.23;;;9.80;1.00;;;;;;5306874;26;20504;-74
2024/04/11 06:18:34;;;;;;;9.63;8.63;;;9.90;1.00;;;;;;5307853;26;20484;-72
2024/04/11 06:21:04;;;;;;;9.93;8.93;;;10.00;1.00;;;;;;5322805;26;21015;-76
2024/04/11 06:23:30;;;;;;;10.27;7.63;;;10.10;1.00;;;;;;5348141;26;20992;-73
2024/04/11 06:26:02;;;;;;;8.37;7.67;;;10.20;1.00;;;;;;5389455;26;20502;-73
2024/04/11 06:28:28;;;;;;;11.93;8.47;;;10.30;1.00;;;;;;5339021;26;20550;-72
2024/04/11 06:30:59;;;;;;;9.63;7.60;;;10.50;1.00;;;;;;5347246;26;20982;-76
2024/04/11 06:33:26;;;;;;;11.00;8.70;;;10.60;1.00;;;;;;5351303;26;20617;-73
2024/04/11 06:35:55;;;;;;;10.50;8.10;;;10.70;1.00;;;;;;5346932;26;20856;-72
2024/04/11 06:38:21;;;;;;;9.70;8.07;;;10.80;1.00;;;;;;5343074;26;20556;-72
2024/04/11 06:40:52;;;;;;;10.87;8.03;;;11.00;1.00;;;;;;5328997;26;20483;-73
2024/04/11 06:43:21;;;;;;;10.73;8.20;;;11.10;1.00;;;;;;5342830;26;20539;-74
2024/04/11 06:45:50;;;;;;;8.83;7.93;;;11.20;1.00;;;;;;5340750;26;20510;-74
2024/04/11 06:48:18;;;;;;;8.40;7.63;;;11.30;1.00;;;;;;5343467;26;20499;-73
2024/04/11 06:50:47;;;;;;;9.80;7.37;;;11.40;1.00;;;;;;5341980;26;20634;-73
2024/04/11 06:53:14;;;;;;;11.23;7.83;;;11.50;1.00;;;;;;5336500;26;20455;-75
2024/04/11 06:55:46;;;;;;;9.63;8.00;;;11.60;1.00;;;;;;5331229;26;20521;-74
2024/04/11 06:58:13;;;;;;;12.17;7.77;;;11.70;1.00;;;;;;5310823;26;21032;-74
2024/04/11 07:00:46;;;;;;;11.03;7.30;;;11.80;1.00;;;;;;5325359;26;20504;-74
2024/04/11 07:03:16;;;;;;;11.20;7.40;;;11.90;1.00;;;;;;5337005;26;21021;-75
2024/04/11 07:05:55;;;;;;;9.40;7.00;;;12.00;1.00;;;;;;5333645;26;20508;-71
2024/04/11 07:08:29;;;;;;;10.40;7.27;;;12.20;1.00;;;;;;5300304;26;20506;-73
2024/04/11 07:10:58;;;;;;;10.70;6.70;;;12.30;1.00;;;;;;5307218;26;20489;-70
2024/04/11 07:13:25;;;;;;;17.37;7.50;;;12.40;1.00;;;;;;5304016;26;20536;-70
2024/04/11 07:15:58;;;;;;;9.70;7.13;;;12.60;1.00;;;;;;5305287;26;20477;-70
2024/04/11 07:18:34;;;;;;;9.20;6.97;;;12.80;1.00;;;;;;5307135;26;21125;-70
2024/04/11 07:21:07;;;;;;;9.77;7.00;;;13.00;1.00;;;;;;5334598;26;20975;-70
2024/04/11 07:23:33;;;;;;;12.50;6.93;;;13.10;1.00;;;;;;5341073;26;21418;-72
2024/04/11 07:26:07;;;;;;;8.43;5.97;;;13.30;1.00;;;;;;5351379;26;20482;-70
2024/04/11 07:28:34;;;;;;;7.53;6.73;;;13.40;1.00;;;;;;5347142;26;20484;-70
2024/04/11 07:31:06;;;;;;;10.77;7.57;;;13.60;1.00;;;;;;5343490;26;20500;-71
2024/04/11 07:33:32;;;;;;;6.50;5.90;;;13.70;1.00;;;;;;5342708;26;20493;-72
2024/04/11 07:36:01;;;;;;;9.23;6.73;;;13.90;1.00;;;;;;5345562;26;20523;-72
2024/04/11 07:38:28;;;;;;;8.07;5.80;;;14.00;1.00;;;;;;5339125;26;21016;-71
2024/04/11 07:40:59;;;;;;;8.90;5.97;;;14.30;1.00;;;;;;5338780;26;20748;-70
2024/04/11 07:43:27;;;;;;;9.37;6.57;;;14.50;1.00;;;;;;5333830;26;20722;-72
2024/04/11 07:45:59;;;;;;;10.23;6.17;;;14.70;1.00;;;;;;5341704;26;20479;-72
2024/04/11 07:48:28;;;;;;;7.53;5.30;;;14.90;1.00;;;;;;5345232;26;20493;-71
2024/04/11 07:51:05;;;;;;;8.97;5.90;;;15.00;1.00;;;;;;5342798;26;20501;-70
2024/04/11 07:53:31;;;;;;;9.80;6.10;;;15.10;1.00;;;;;;5339939;26;20984;-72
2024/04/11 07:56:01;;;;;;;6.23;5.50;;;15.20;1.00;;;;;;5339662;26;21108;-72
2024/04/11 07:58:27;;;;;;;5.90;4.73;;;15.40;1.00;;;;;;5340724;26;20823;-70
2024/04/11 08:00:55;;;;;;;4.70;4.30;;;15.50;1.00;;;;;;5335948;26;20482;-71
2024/04/11 08:03:21;;;;;;;4.37;3.97;;;15.60;1.00;;;;;;5339711;26;20867;-70
2024/04/11 08:05:53;;;;;;;4.13;3.80;;;15.60;1.00;;;;;;5343460;26;20573;-70
2024/04/11 08:08:20;;;;;;;5.70;3.80;;;15.60;1.00;;;;;;5341175;26;20535;-71
2024/04/11 08:10:49;;;;;;;5.97;3.60;;;15.50;1.00;;;;;;5338434;26;20513;-71
2024/04/11 08:13:18;;;;;;;5.80;4.10;;;15.50;1.00;;;;;;5342448;26;20490;-70
2024/04/11 08:15:49;;;;;;;4.20;3.50;;;15.50;1.00;;;;;;5339629;26;20555;-70
2024/04/11 08:18:15;;;;;;;7.60;3.70;;;15.50;1.00;;;;;;5337090;26;20570;-70
2024/04/11 08:20:44;;;;;;;4.33;3.20;;;15.50;1.00;;;;;;5338892;26;20479;-73
2024/04/11 08:23:20;;;;;;;4.63;3.47;;;15.60;1.00;;;;;;5341524;26;20725;-72
2024/04/11 08:25:49;;;;;;;6.67;3.60;;;15.80;1.00;;;;;;5338181;26;20534;-74
2024/04/11 08:28:15;;;;;;;3.87;3.00;;;16.00;1.00;;;;;;5338763;26;20606;-75
2024/04/11 08:30:44;;;;;;;4.67;3.30;;;16.10;1.00;;;;;;5345671;26;20572;-73
2024/04/11 08:33:11;;;;;;;3.30;2.97;;;16.20;1.00;;;;;;5342248;26;20554;-73
2024/04/11 08:35:40;;;;;;;2.73;2.13;;;16.30;1.00;;;;;;5340755;26;20482;-74
2024/04/11 08:38:11;;;;;;;3.63;3.03;;;16.40;1.00;;;;;;5341147;26;21106;-73
2024/04/11 08:40:44;;;;;;;4.40;2.90;;;16.50;1.00;;;;;;5341353;26;20520;-73
2024/04/11 08:43:12;;;;;;;5.77;2.37;;;16.60;1.00;;;;;;5343975;26;20506;-72
2024/04/11 08:45:46;;;;;;;3.37;2.00;;;16.70;1.00;;;;;;5342159;26;20975;-73
2024/04/11 08:48:12;;;;;;;2.83;1.90;;;17.00;1.00;;;;;;5341946;26;20539;-74
2024/04/11 08:50:44;;;;;;;3.70;2.80;;;17.20;1.00;;;;;;5339214;26;21026;-73
2024/04/11 08:53:16;;;;;;;4.70;2.53;;;17.50;1.00;;;;;;5341166;26;20590;-73
2024/04/11 08:55:51;;;;;;;4.83;3.10;;;17.60;1.00;;;;;;5337076;26;20609;-71
2024/04/11 08:58:17;;;;;;;3.23;2.30;;;17.90;1.00;;;;;;5339388;26;20931;-71
2024/04/11 09:00:51;;;;;;;11.10;8.53;;;18.20;1.00;;;;;;5339557;26;20541;-73
2024/04/11 09:03:17;;;;;;;5.47;2.40;;;18.50;1.00;;;;;;5337715;26;20496;-73
2024/04/11 09:05:49;;;;;;;2.60;2.37;;;18.60;1.00;;;;;;5340994;26;20993;-74
2024/04/11 09:08:18;;;;;;;3.53;2.40;;;18.70;1.00;;;;;;5337495;26;20502;-73
2024/04/11 09:10:50;;;;;;;3.30;2.30;;;18.90;1.00;;;;;;5321697;26;20604;-73
2024/04/11 09:13:16;;;;;;;3.10;2.60;;;18.80;1.00;;;;;;5318120;26;20579;-72
2024/04/11 09:15:45;;;;;;;4.37;2.70;;;18.60;1.00;;;;;;5303650;26;20995;-74
2024/04/11 09:18:22;;;;;;;5.50;2.70;;;18.60;1.00;;;;;;5303034;26;20551;-73
2024/04/11 09:20:51;;;;;;;3.50;2.33;;;18.60;1.00;;;;;;5305480;26;20527;-73
2024/04/11 09:23:19;;;;;;;3.30;2.37;;;18.50;1.00;;;;;;5328918;26;20525;-73
2024/04/11 09:25:52;;;;;;;3.60;2.30;;;18.80;1.00;;;;;;5336532;26;20480;-74
2024/04/11 09:28:20;;;;;;;3.50;2.40;;;19.00;1.00;;;;;;5327630;26;20580;-73
2024/04/11 09:30:51;;;;;;;4.57;2.63;;;19.70;1.00;;;;;;5338273;26;20522;-72
2024/04/11 09:33:17;;;;;;;9.90;3.30;;;20.90;1.00;;;;;;5337822;26;20516;-74
2024/04/11 09:35:53;;;;;;;5.23;2.87;;;22.00;1.00;;;;;;5342884;26;20505;-72
2024/04/11 09:38:22;;;;;;;3.43;2.20;;;22.60;1.00;;;;;;5339986;26;20535;-72
2024/04/11 09:40:55;;;;;;;2.70;1.67;;;22.80;1.00;;;;;;5345157;26;20557;-73
2024/04/11 09:43:27;;;;;;;5.33;2.73;;;23.30;1.00;;;;;;5341027;26;20551;-73
2024/04/11 09:46:04;;;;;;;2.70;1.80;;;23.60;1.00;;;;;;5335074;26;20509;-71
2024/04/11 09:48:32;;;;;;;2.40;2.20;;;23.50;1.00;;;;;;5343248;26;20543;-73
2024/04/11 09:51:05;;;;;;;3.57;1.77;;;23.30;1.00;;;;;;5338813;26;20499;-73
2024/04/11 09:53:36;;;;;;;3.60;2.20;;;23.00;1.00;;;;;;5341174;26;20490;-72
2024/04/11 09:56:08;;;;;;;4.10;1.90;;;23.10;1.00;;;;;;5340643;26;20484;-72
2024/04/11 09:58:38;;;;;;;2.00;1.80;;;23.80;1.00;;;;;;5337578;26;20539;-71
2024/04/11 10:01:29;;;;;;;3.13;1.40;;;24.30;1.00;;;;;;5336685;26;21122;-74
2024/04/11 10:03:58;;;;;;;4.33;1.90;;;24.40;1.00;;;;;;5339991;26;20619;-72
2024/04/11 10:06:35;;;;;;;5.03;2.10;;;24.50;1.00;;;;;;5334627;26;21108;-72
2024/04/11 10:09:17;;;;;;;2.30;1.57;;;24.10;1.00;;;;;;5341181;26;20484;-71
2024/04/11 10:11:51;;;;;;;3.53;2.27;;;23.40;1.00;;;;;;5337193;26;20531;-72
2024/04/11 10:14:18;;;;;;;3.50;2.33;;;22.70;1.00;;;;;;5336742;26;20482;-72
2024/04/11 10:16:51;;;;;;;3.87;1.80;;;22.40;1.00;;;;;;5340480;26;21715;-72
2024/04/11 10:19:26;;;;;;;4.07;2.17;;;22.30;1.00;;;;;;5302414;26;20491;-72
2024/04/11 10:21:55;;;;;;;3.33;2.10;;;22.30;1.00;;;;;;5315803;26;20553;-71
2024/04/11 10:24:28;;;;;;;2.37;2.00;;;21.90;1.00;;;;;;5320748;26;20556;-71
2024/04/11 10:27:09;;;;;;;3.63;1.67;;;21.60;1.00;;;;;;5337955;26;20569;-74
2024/04/11 10:29:37;;;;;;;3.73;1.50;;;21.30;1.00;;;;;;5330888;26;20536;-71
2024/04/11 10:32:07;;;;;;;4.53;2.67;;;21.20;1.00;;;;;;5334398;26;20570;-73
2024/04/11 10:34:34;;;;;;;2.97;1.80;;;21.00;1.00;;;;;;5340827;26;20620;-72
2024/04/11 10:37:07;;;;;;;2.20;1.73;;;21.00;1.00;;;;;;5340322;26;20571;-72
2024/04/11 10:39:35;;;;;;;4.20;2.30;;;20.90;1.00;;;;;;5304213;26;20979;-72
2024/04/11 10:42:10;;;;;;;4.50;2.33;;;20.70;1.00;;;;;;5354588;26;20639;-73
2024/04/11 10:44:37;;;;;;;3.83;1.80;;;20.40;1.00;;;;;;5317665;26;20660;-72
2024/04/11 10:47:07;;;;;;;2.70;1.73;;;20.20;1.00;;;;;;5318799;26;20557;-73
2024/04/11 10:49:34;;;;;;;3.93;1.67;;;20.20;1.00;;;;;;5307860;26;20498;-73
2024/04/11 10:52:05;;;;;;;2.03;1.60;;;20.20;1.00;;;;;;5342112;26;20489;-72
2024/04/11 10:54:32;;;;;;;2.47;1.53;;;19.90;1.00;;;;;;5344210;26;20540;-72
2024/04/11 10:57:03;;;;;;;3.40;1.70;;;19.70;1.00;;;;;;5341680;26;20498;-73
2024/04/11 10:59:34;;;;;;;3.03;1.67;;;19.70;1.00;;;;;;5340748;26;20791;-72
2024/04/11 11:02:08;;;;;;;9.10;2.40;;;19.60;1.00;;;;;;5344364;26;20478;-73
2024/04/11 11:04:34;;;;;;;2.00;1.50;;;19.60;1.00;;;;;;5342358;26;21017;-73
2024/04/11 11:07:09;;;;;;;3.33;1.60;;;19.60;1.00;;;;;;5340910;26;20536;-73
2024/04/11 11:09:42;;;;;;;4.50;2.50;;;19.80;1.00;;;;;;5341981;26;20494;-73
2024/04/11 11:12:11;;;;;;;16.90;15.17;;;20.00;1.00;;;;;;5337768;26;20612;-73
2024/04/11 11:14:40;;;;;;;4.97;2.50;;;20.00;1.00;;;;;;5308111;26;20579;-75
2024/04/11 11:17:16;;;;;;;3.07;2.20;;;20.00;1.00;;;;;;5334399;26;20490;-74
2024/04/11 11:19:43;;;;;;;3.40;1.80;;;20.00;1.00;;;;;;5334355;26;21044;-77
2024/04/11 11:22:11;;;;;;;3.37;1.73;;;19.70;1.00;;;;;;5336224;26;20542;-72
2024/04/11 11:24:37;;;;;;;6.47;2.10;;;19.70;1.00;;;;;;5328263;26;21134;-75
2024/04/11 11:27:07;;;;;;;5.37;2.40;;;19.80;1.00;;;;;;5331289;26;20586;-75
2024/04/11 11:29:36;;;;;;;3.43;2.37;;;19.80;1.00;;;;;;5337655;26;20900;-74
2024/04/11 11:32:18;;;;;;;2.40;1.90;;;19.70;1.00;;;;;;5335923;26;20566;-72
2024/04/11 11:34:46;;;;;;;3.67;2.13;;;19.40;1.00;;;;;;5337329;26;20487;-73
2024/04/11 11:37:21;;;;;;;1.90;1.67;;;19.30;1.00;;;;;;5340289;26;20513;-72
2024/04/11 11:39:50;;;;;;;4.43;1.50;;;19.20;1.00;;;;;;5340251;26;20498;-73
2024/04/11 11:42:23;;;;;;;3.43;2.07;;;19.10;1.00;;;;;;5336585;26;20596;-73
2024/04/11 11:47:36;;;;;;;3.63;1.77;;;19.10;1.00;;;;;;5333372;26;20505;-73
2024/04/11 11:50:07;;;;;;;2.30;1.90;;;19.20;1.00;;;;;;5326694;26;20494;-73
2024/04/11 11:52:36;;;;;;;4.30;1.90;;;19.20;1.00;;;;;;5323389;26;20658;-73
2024/04/11 11:55:03;;;;;;;2.50;1.37;;;19.20;1.00;;;;;;5334794;26;20492;-73
2024/04/11 11:57:39;;;;;;;3.70;1.77;;;19.30;1.00;;;;;;5336646;26;21080;-73
2024/04/11 12:00:18;;;;;;;3.40;1.97;;;19.30;1.00;;;;;;5339497;26;20970;-73
2024/04/11 12:02:52;;;;;;;4.00;2.27;;;19.30;1.00;;;;;;5312737;26;20651;-73
2024/04/11 12:05:23;;;;;;;3.80;2.10;;;19.60;1.00;;;;;;5326331;26;20663;-73
2024/04/11 12:07:57;;;;;;;2.77;1.97;;;19.70;1.00;;;;;;5326123;26;20588;-73
2024/04/11 12:10:29;;;;;;;2.50;2.13;;;19.70;1.00;;;;;;5305245;26;20657;-73
2024/04/11 12:13:18;;;;;;;4.17;2.23;;;19.70;1.00;;;;;;5300817;26;20636;-73
2024/04/11 12:15:45;;;;;;;3.33;1.67;;;19.70;1.00;;;;;;5327023;26;21020;-74
2024/04/11 12:18:21;;;;;;;1.53;1.43;;;19.70;1.00;;;;;;5334861;26;20543;-73
2024/04/11 12:20:51;;;;;;;3.27;2.23;;;19.70;1.00;;;;;;5322911;26;20621;-73
2024/04/11 12:23:17;;;;;;;2.13;1.60;;;19.90;1.00;;;;;;5301872;26;20500;-73
2024/04/11 12:25:46;;;;;;;3.43;3.10;;;19.90;1.00;;;;;;5303782;26;20634;-73
2024/04/11 12:28:13;;;;;;;3.10;2.80;;;19.90;1.00;;;;;;5302490;26;20517;-73
2024/04/11 12:30:43;;;;;;;4.20;2.40;;;19.70;1.00;;;;;;5309284;26;20515;-73
2024/04/11 12:33:09;;;;;;;4.03;2.03;;;19.90;1.00;;;;;;5309803;26;20552;-74
2024/04/11 12:35:45;;;;;;;2.43;1.70;;;20.00;1.00;;;;;;5333089;26;20487;-71
2024/04/11 12:38:14;;;;;;;3.80;1.97;;;20.10;1.00;;;;;;5340428;26;20487;-73
2024/04/11 12:40:48;;;;;;;3.80;2.27;;;20.00;1.00;;;;;;5340644;26;20931;-73
2024/04/11 12:43:15;;;;;;;5.67;2.00;;;20.10;1.00;;;;;;5315010;26;20621;-74
2024/04/11 12:45:51;;;;;;;2.67;1.63;;;20.00;1.00;;;;;;5328292;26;20498;-75
2024/04/11 12:48:20;;;;;;;4.33;1.47;;;20.00;1.00;;;;;;5340106;26;20573;-73
2024/04/11 12:50:54;;;;;;;2.13;1.90;;;20.00;1.00;;;;;;5311713;26;20576;-73
2024/04/11 12:53:21;;;;;;;2.70;2.20;;;20.00;1.00;;;;;;5325140;26;20502;-73
2024/04/11 12:55:52;;;;;;;4.10;2.30;;;20.20;1.00;;;;;;5317037;26;20541;-72
2024/04/11 12:58:20;;;;;;;2.67;1.67;;;20.30;1.00;;;;;;5340785;26;20499;-73
2024/04/11 13:00:57;;;;;;;3.57;1.83;;;20.30;1.00;;;;;;5335127;26;20508;-71
2024/04/11 13:03:35;;;;;;;4.00;2.10;;;20.50;1.00;;;;;;5334404;26;20594;-72
2024/04/11 13:06:08;;;;;;;6.90;2.03;;;20.70;1.00;;;;;;5327187;26;20594;-70
2024/04/11 13:08:34;;;;;;;2.70;1.70;;;20.70;1.00;;;;;;5331948;26;20584;-72
2024/04/11 13:11:09;;;;;;;2.80;1.70;;;20.80;1.00;;;;;;5333327;26;20488;-72
2024/04/11 13:13:38;;;;;;;2.10;1.50;;;20.90;1.00;;;;;;5336761;26;21007;-71
2024/04/11 13:16:09;;;;;;;4.80;1.93;;;20.80;1.00;;;;;;5320553;26;20492;-71